»·PEaware :: UPS5 KFAT-KSFO

UPS5 :: KFAT-KSFO

FLIGHT INFORMATION

Flight Status: Arrived
Operator:
United Parcel Service
More flights by this operator :: More flights under this callsign
Pilot: Jackson G. (14605)
Aircraft: BOEING 757-200
(B752)
More flights by this aircraft type
Origin: KFAT Fresno Yosemite Intl
United States
Destination: KSFO San Francisco Intl
United States
More flights between these airports :: More routes between these airports
Route: +YOSE1 NTELL ALWYS CEDES ARCHI
File this flight plan on PilotEdge
Remarks:
Altitude:
(Current/Filed)
19,000ft
Speed:
(Current/Filed)
280kts
Departed: 17-Jul-20 10:33 AM
Arrived: 17-Jul-20 11:08 AM
Distance/Time
Traveled:
138nm/0:35
Distance/Time
To Go:
Arrived

Flight Plot

Page will automatically refresh every two minutes.

Flight plan parsing failed; only flown route is shown


Map Options




Map Legend


Flown Route
Filed Route
Departure Airport
Arrival Airport
Navaid (VOR, NDB)
Fix

Horizontal Profiles

Position Reports

Time Latitude Longitude Heading Altitude Ground
Speed
17-Jul-20 10:01 36.779074 -119.715810 306 344ft 0kts
17-Jul-20 10:02 36.779074 -119.715810 306 344ft 0kts
17-Jul-20 10:03 36.779074 -119.715810 306 344ft 0kts
17-Jul-20 10:04 36.779074 -119.715810 306 344ft 0kts
17-Jul-20 10:05 36.779074 -119.715810 306 344ft 0kts
17-Jul-20 10:08 36.779074 -119.715810 306 344ft 0kts
17-Jul-20 10:09 36.779074 -119.715810 306 344ft 0kts
17-Jul-20 10:10 36.779074 -119.715810 306 344ft 0kts
17-Jul-20 10:11 36.779074 -119.715810 306 344ft 0kts
17-Jul-20 10:12 36.779074 -119.715810 306 344ft 0kts
17-Jul-20 10:13 36.779074 -119.715810 306 344ft 0kts
17-Jul-20 10:14 36.779074 -119.715810 306 344ft 0kts
17-Jul-20 10:15 36.779074 -119.715810 306 344ft 0kts
17-Jul-20 10:16 36.779074 -119.715810 306 344ft 0kts
17-Jul-20 10:17 36.779074 -119.715810 306 344ft 0kts
17-Jul-20 10:18 36.779074 -119.715810 306 344ft 0kts
17-Jul-20 10:19 36.779074 -119.715810 306 344ft 0kts
17-Jul-20 10:20 36.779074 -119.715810 306 344ft 0kts
17-Jul-20 10:21 36.779074 -119.715810 306 344ft 0kts
17-Jul-20 10:22 36.778983 -119.715656 306 344ft 0kts
17-Jul-20 10:23 36.778873 -119.715003 253 345ft 2kts
17-Jul-20 10:24 36.778873 -119.715003 253 345ft 2kts
17-Jul-20 10:26 36.779139 -119.714561 213 345ft 0kts
17-Jul-20 10:27 36.779139 -119.714561 213 344ft 0kts
17-Jul-20 10:28 36.778190 -119.715354 201 345ft 12kts
17-Jul-20 10:29 36.775174 -119.710870 126 345ft 18kts
17-Jul-20 10:30 36.771774 -119.704936 125 345ft 21kts
17-Jul-20 10:31 36.769704 -119.702948 211 344ft 0kts
17-Jul-20 10:32 36.774868 -119.714085 304 345ft 142kts
17-Jul-20 10:33 36.804714 -119.767955 304 2234ft 212kts
17-Jul-20 10:34 36.845932 -119.823240 317 2907ft 224kts
17-Jul-20 10:35 36.891343 -119.879098 314 4732ft 256kts
17-Jul-20 10:36 36.939330 -119.946493 311 7454ft 265kts
17-Jul-20 10:37 36.988330 -120.016974 311 10062ft 276kts
17-Jul-20 10:38 37.041205 -120.093224 310 12001ft 303kts
17-Jul-20 10:39 37.097488 -120.174566 311 14262ft 314kts
17-Jul-20 10:40 37.154356 -120.256965 310 16555ft 312kts
17-Jul-20 10:41 37.210244 -120.338164 310 18830ft 304kts
17-Jul-20 10:42 37.270785 -120.426335 310 18960ft 363kts
17-Jul-20 10:43 37.339682 -120.526983 310 19000ft 384kts
17-Jul-20 10:44 37.409317 -120.629012 310 18969ft 386kts
17-Jul-20 10:45 37.476542 -120.727799 310 17311ft 336kts
17-Jul-20 10:46 37.534404 -120.813059 310 16125ft 314kts
17-Jul-20 10:47 37.590857 -120.896473 310 15090ft 309kts
17-Jul-20 10:48 37.628369 -120.989389 265 14247ft 306kts
17-Jul-20 10:49 37.616767 -121.095032 261 13300ft 300kts
17-Jul-20 10:50 37.604201 -121.197995 261 12506ft 298kts
17-Jul-20 10:51 37.591494 -121.300678 261 11704ft 294kts
17-Jul-20 10:52 37.578969 -121.401105 261 10892ft 280kts
17-Jul-20 10:53 37.566889 -121.497270 261 10091ft 276kts
17-Jul-20 10:54 37.554968 -121.591563 261 9361ft 265kts
17-Jul-20 10:55 37.537890 -121.678492 253 8645ft 248kts
17-Jul-20 10:56 37.518167 -121.761179 252 7946ft 245kts
17-Jul-20 10:57 37.498495 -121.843257 252 7243ft 243kts
17-Jul-20 10:58 37.477916 -121.923923 251 6417ft 240kts
17-Jul-20 10:59 37.462985 -122.000217 289 5579ft 202kts
17-Jul-20 11:00 37.485248 -122.058992 298 4994ft 181kts
17-Jul-20 11:01 37.508029 -122.112671 298 4153ft 160kts
17-Jul-20 11:02 37.527759 -122.159233 298 3387ft 147kts
17-Jul-20 11:03 37.547024 -122.204475 297 2686ft 152kts
17-Jul-20 11:04 37.566307 -122.250461 298 1895ft 148kts
17-Jul-20 11:05 37.585459 -122.296022 297 1114ft 146kts
17-Jul-20 11:06 37.604326 -122.340739 298 358ft 137kts
17-Jul-20 11:07 37.618545 -122.374607 298 21ft 26kts
17-Jul-20 11:08 37.619437 -122.379849 306 21ft 21kts
17-Jul-20 11:09 37.621961 -122.385717 298 18ft 26kts
17-Jul-20 11:10 37.624181 -122.391108 298 17ft 21kts
17-Jul-20 11:11 37.624972 -122.397105 236 20ft 8kts

Navigation Log

Ident Type
Flight plan parsing failed, navigation log unavailable